sensor_id;sensor_type;location;lat;lon;timestamp;temperature;humidity
16974;DHT22;8603;46.944;7.412;2022-08-21T00:00:15;16.70;99.90
16974;DHT22;8603;46.944;7.412;2022-08-21T00:02:49;16.70;99.90
16974;DHT22;8603;46.944;7.412;2022-08-21T00:05:16;16.70;99.90
16974;DHT22;8603;46.944;7.412;2022-08-21T00:07:45;16.70;99.90
16974;DHT22;8603;46.944;7.412;2022-08-21T00:10:11;16.70;99.90
16974;DHT22;8603;46.944;7.412;2022-08-21T00:12:38;16.70;99.90
16974;DHT22;8603;46.944;7.412;2022-08-21T00:15:07;16.60;99.90
16974;DHT22;8603;46.944;7.412;2022-08-21T00:17:34;16.70;99.90
16974;DHT22;8603;46.944;7.412;2022-08-21T00:20:04;16.70;99.90
16974;DHT22;8603;46.944;7.412;2022-08-21T00:22:30;16.70;99.90
16974;DHT22;8603;46.944;7.412;2022-08-21T00:24:55;16.70;99.90
16974;DHT22;8603;46.944;7.412;2022-08-21T00:27:21;16.80;99.90
16974;DHT22;8603;46.944;7.412;2022-08-21T00:29:47;16.70;99.90
16974;DHT22;8603;46.944;7.412;2022-08-21T00:32:13;16.80;99.90
16974;DHT22;8603;46.944;7.412;2022-08-21T00:34:44;16.80;99.90
16974;DHT22;8603;46.944;7.412;2022-08-21T00:37:12;16.80;99.90
16974;DHT22;8603;46.944;7.412;2022-08-21T00:39:38;16.90;99.90
16974;DHT22;8603;46.944;7.412;2022-08-21T00:42:04;16.90;99.90
16974;DHT22;8603;46.944;7.412;2022-08-21T00:44:30;17.00;99.90
16974;DHT22;8603;46.944;7.412;2022-08-21T00:46:56;17.00;99.90
16974;DHT22;8603;46.944;7.412;2022-08-21T00:49:22;17.00;99.90
16974;DHT22;8603;46.944;7.412;2022-08-21T00:51:51;17.00;99.90
16974;DHT22;8603;46.944;7.412;2022-08-21T00:54:19;17.00;99.90
16974;DHT22;8603;46.944;7.412;2022-08-21T00:56:53;17.10;99.90
16974;DHT22;8603;46.944;7.412;2022-08-21T00:59:20;17.10;99.90
16974;DHT22;8603;46.944;7.412;2022-08-21T01:01:47;17.10;99.90
16974;DHT22;8603;46.944;7.412;2022-08-21T01:04:13;17.10;99.90
16974;DHT22;8603;46.944;7.412;2022-08-21T01:06:41;17.10;99.90
16974;DHT22;8603;46.944;7.412;2022-08-21T01:09:06;17.10;99.90
16974;DHT22;8603;46.944;7.412;2022-08-21T01:11:32;17.10;99.90
16974;DHT22;8603;46.944;7.412;2022-08-21T01:13:58;17.10;99.90
16974;DHT22;8603;46.944;7.412;2022-08-21T01:16:24;17.00;99.90
16974;DHT22;8603;46.944;7.412;2022-08-21T01:18:50;17.00;99.90
16974;DHT22;8603;46.944;7.412;2022-08-21T01:21:23;17.00;99.90
16974;DHT22;8603;46.944;7.412;2022-08-21T01:23:52;17.00;99.90
16974;DHT22;8603;46.944;7.412;2022-08-21T01:26:21;17.00;99.90
16974;DHT22;8603;46.944;7.412;2022-08-21T01:29:00;17.00;99.90
16974;DHT22;8603;46.944;7.412;2022-08-21T01:31:28;16.90;99.90
16974;DHT22;8603;46.944;7.412;2022-08-21T01:33:55;16.80;99.90
16974;DHT22;8603;46.944;7.412;2022-08-21T01:36:21;16.90;99.90
16974;DHT22;8603;46.944;7.412;2022-08-21T01:38:49;16.80;99.90
16974;DHT22;8603;46.944;7.412;2022-08-21T01:41:16;16.80;99.90
16974;DHT22;8603;46.944;7.412;2022-08-21T01:43:42;16.80;99.90
16974;DHT22;8603;46.944;7.412;2022-08-21T01:46:09;16.80;99.90
16974;DHT22;8603;46.944;7.412;2022-08-21T01:48:35;16.80;99.90
16974;DHT22;8603;46.944;7.412;2022-08-21T01:51:00;16.80;99.90
16974;DHT22;8603;46.944;7.412;2022-08-21T01:53:26;16.70;99.90
16974;DHT22;8603;46.944;7.412;2022-08-21T01:55:52;16.70;99.90
16974;DHT22;8603;46.944;7.412;2022-08-21T01:58:18;16.70;99.90
16974;DHT22;8603;46.944;7.412;2022-08-21T02:00:44;16.70;99.90
16974;DHT22;8603;46.944;7.412;2022-08-21T02:03:12;16.70;99.90
16974;DHT22;8603;46.944;7.412;2022-08-21T02:05:43;16.60;99.90
16974;DHT22;8603;46.944;7.412;2022-08-21T02:08:09;16.60;99.90
16974;DHT22;8603;46.944;7.412;2022-08-21T02:10:34;16.60;99.90
16974;DHT22;8603;46.944;7.412;2022-08-21T02:13:00;16.60;99.90
16974;DHT22;8603;46.944;7.412;2022-08-21T02:15:27;16.60;99.90
16974;DHT22;8603;46.944;7.412;2022-08-21T02:17:56;16.60;99.90
16974;DHT22;8603;46.944;7.412;2022-08-21T02:20:29;16.50;99.90
16974;DHT22;8603;46.944;7.412;2022-08-21T02:22:56;16.50;99.90
16974;DHT22;8603;46.944;7.412;2022-08-21T02:25:23;16.50;99.90
16974;DHT22;8603;46.944;7.412;2022-08-21T02:27:49;16.50;99.90
16974;DHT22;8603;46.944;7.412;2022-08-21T02:30:21;16.50;99.90
16974;DHT22;8603;46.944;7.412;2022-08-21T02:32:47;16.40;99.90
16974;DHT22;8603;46.944;7.412;2022-08-21T02:35:14;16.40;99.90
16974;DHT22;8603;46.944;7.412;2022-08-21T02:37:52;16.40;99.90
16974;DHT22;8603;46.944;7.412;2022-08-21T02:40:20;16.30;99.90
16974;DHT22;8603;46.944;7.412;2022-08-21T02:42:48;16.30;99.90
16974;DHT22;8603;46.944;7.412;2022-08-21T02:45:16;16.20;99.90
16974;DHT22;8603;46.944;7.412;2022-08-21T02:47:56;16.20;99.90
16974;DHT22;8603;46.944;7.412;2022-08-21T02:50:44;16.20;99.90
16974;DHT22;8603;46.944;7.412;2022-08-21T02:53:12;16.10;99.90
16974;DHT22;8603;46.944;7.412;2022-08-21T02:55:39;16.10;99.90
16974;DHT22;8603;46.944;7.412;2022-08-21T02:58:06;16.10;99.90
16974;DHT22;8603;46.944;7.412;2022-08-21T03:00:33;16.10;99.90
16974;DHT22;8603;46.944;7.412;2022-08-21T03:02:59;16.00;99.90
16974;DHT22;8603;46.944;7.412;2022-08-21T03:05:27;16.00;99.90
16974;DHT22;8603;46.944;7.412;2022-08-21T03:07:56;16.00;99.90
16974;DHT22;8603;46.944;7.412;2022-08-21T03:10:22;16.00;99.90
16974;DHT22;8603;46.944;7.412;2022-08-21T03:12:48;16.00;99.90
16974;DHT22;8603;46.944;7.412;2022-08-21T03:15:16;15.90;99.90
16974;DHT22;8603;46.944;7.412;2022-08-21T03:17:43;15.90;99.90
16974;DHT22;8603;46.944;7.412;2022-08-21T03:20:09;15.90;99.90
16974;DHT22;8603;46.944;7.412;2022-08-21T03:22:35;15.90;99.90
16974;DHT22;8603;46.944;7.412;2022-08-21T03:25:01;15.90;99.90
16974;DHT22;8603;46.944;7.412;2022-08-21T03:27:27;15.80;99.90
16974;DHT22;8603;46.944;7.412;2022-08-21T03:29:54;15.80;99.90
16974;DHT22;8603;46.944;7.412;2022-08-21T03:32:20;15.80;99.90
16974;DHT22;8603;46.944;7.412;2022-08-21T03:34:46;15.70;99.90
16974;DHT22;8603;46.944;7.412;2022-08-21T03:37:15;15.70;99.90
16974;DHT22;8603;46.944;7.412;2022-08-21T03:39:42;15.60;99.90
16974;DHT22;8603;46.944;7.412;2022-08-21T03:42:08;15.70;99.90
16974;DHT22;8603;46.944;7.412;2022-08-21T03:44:35;15.60;99.90
16974;DHT22;8603;46.944;7.412;2022-08-21T03:47:01;15.60;99.90
16974;DHT22;8603;46.944;7.412;2022-08-21T03:49:27;15.60;99.90
16974;DHT22;8603;46.944;7.412;2022-08-21T03:51:53;15.60;99.90
16974;DHT22;8603;46.944;7.412;2022-08-21T03:54:19;15.60;99.90
16974;DHT22;8603;46.944;7.412;2022-08-21T03:56:45;15.60;99.90
16974;DHT22;8603;46.944;7.412;2022-08-21T03:59:11;15.60;99.90
16974;DHT22;8603;46.944;7.412;2022-08-21T04:01:39;15.60;99.90
16974;DHT22;8603;46.944;7.412;2022-08-21T04:04:06;15.60;99.90
16974;DHT22;8603;46.944;7.412;2022-08-21T04:06:33;15.50;99.90
16974;DHT22;8603;46.944;7.412;2022-08-21T04:08:58;15.50;99.90
16974;DHT22;8603;46.944;7.412;2022-08-21T04:11:24;15.50;99.90
16974;DHT22;8603;46.944;7.412;2022-08-21T04:13:50;15.40;99.90
16974;DHT22;8603;46.944;7.412;2022-08-21T04:16:23;15.40;99.90
16974;DHT22;8603;46.944;7.412;2022-08-21T04:18:52;15.40;99.90
16974;DHT22;8603;46.944;7.412;2022-08-21T04:21:28;15.40;99.90
16974;DHT22;8603;46.944;7.412;2022-08-21T04:23:57;15.40;99.90
16974;DHT22;8603;46.944;7.412;2022-08-21T04:26:28;15.40;99.90
16974;DHT22;8603;46.944;7.412;2022-08-21T04:28:56;15.30;99.90
16974;DHT22;8603;46.944;7.412;2022-08-21T04:31:23;15.30;99.90
16974;DHT22;8603;46.944;7.412;2022-08-21T04:33:49;15.30;99.90
16974;DHT22;8603;46.944;7.412;2022-08-21T04:36:15;15.30;99.90
16974;DHT22;8603;46.944;7.412;2022-08-21T04:38:41;15.20;99.90
16974;DHT22;8603;46.944;7.412;2022-08-21T04:41:07;15.30;99.90
16974;DHT22;8603;46.944;7.412;2022-08-21T04:43:53;15.30;99.90
16974;DHT22;8603;46.944;7.412;2022-08-21T04:46:22;15.30;99.90
16974;DHT22;8603;46.944;7.412;2022-08-21T04:48:48;15.20;99.90
16974;DHT22;8603;46.944;7.412;2022-08-21T04:51:29;15.30;99.90
16974;DHT22;8603;46.944;7.412;2022-08-21T04:54:08;15.30;99.90
16974;DHT22;8603;46.944;7.412;2022-08-21T04:56:44;15.30;99.90
16974;DHT22;8603;46.944;7.412;2022-08-21T04:59:25;15.30;99.90
16974;DHT22;8603;46.944;7.412;2022-08-21T05:01:52;15.40;99.90
16974;DHT22;8603;46.944;7.412;2022-08-21T05:04:27;15.50;99.90
16974;DHT22;8603;46.944;7.412;2022-08-21T05:06:57;15.60;99.90
16974;DHT22;8603;46.944;7.412;2022-08-21T05:09:24;15.70;99.90
16974;DHT22;8603;46.944;7.412;2022-08-21T05:11:50;15.90;99.90
16974;DHT22;8603;46.944;7.412;2022-08-21T05:14:22;16.40;99.90
16974;DHT22;8603;46.944;7.412;2022-08-21T05:16:47;16.80;99.90
16974;DHT22;8603;46.944;7.412;2022-08-21T05:19:14;17.20;99.90
16974;DHT22;8603;46.944;7.412;2022-08-21T05:21:44;17.40;99.90
16974;DHT22;8603;46.944;7.412;2022-08-21T05:24:14;17.60;99.90
16974;DHT22;8603;46.944;7.412;2022-08-21T05:26:40;17.70;99.90
16974;DHT22;8603;46.944;7.412;2022-08-21T05:29:08;17.80;99.90
16974;DHT22;8603;46.944;7.412;2022-08-21T05:31:33;17.90;99.90
16974;DHT22;8603;46.944;7.412;2022-08-21T05:33:59;18.00;99.90
16974;DHT22;8603;46.944;7.412;2022-08-21T05:36:25;18.10;99.90
16974;DHT22;8603;46.944;7.412;2022-08-21T05:38:51;18.10;99.90
16974;DHT22;8603;46.944;7.412;2022-08-21T05:41:16;18.10;99.90
16974;DHT22;8603;46.944;7.412;2022-08-21T05:43:42;18.00;99.90
16974;DHT22;8603;46.944;7.412;2022-08-21T05:46:08;17.80;99.90
16974;DHT22;8603;46.944;7.412;2022-08-21T05:48:35;17.70;99.90
16974;DHT22;8603;46.944;7.412;2022-08-21T05:51:13;17.70;99.90
16974;DHT22;8603;46.944;7.412;2022-08-21T05:53:41;17.60;99.90
16974;DHT22;8603;46.944;7.412;2022-08-21T05:56:08;17.70;99.90
16974;DHT22;8603;46.944;7.412;2022-08-21T05:58:34;17.70;99.90
16974;DHT22;8603;46.944;7.412;2022-08-21T06:01:01;17.70;99.90
16974;DHT22;8603;46.944;7.412;2022-08-21T06:03:29;17.70;99.90
16974;DHT22;8603;46.944;7.412;2022-08-21T06:05:56;18.10;99.90
16974;DHT22;8603;46.944;7.412;2022-08-21T06:08:22;18.30;99.90
16974;DHT22;8603;46.944;7.412;2022-08-21T06:10:50;18.60;99.90
16974;DHT22;8603;46.944;7.412;2022-08-21T06:13:17;18.80;99.90
16974;DHT22;8603;46.944;7.412;2022-08-21T06:15:44;19.10;99.90
16974;DHT22;8603;46.944;7.412;2022-08-21T06:18:10;19.30;99.90
16974;DHT22;8603;46.944;7.412;2022-08-21T06:20:36;19.30;99.90
16974;DHT22;8603;46.944;7.412;2022-08-21T06:23:02;19.10;99.90
16974;DHT22;8603;46.944;7.412;2022-08-21T06:25:28;18.90;99.90
16974;DHT22;8603;46.944;7.412;2022-08-21T06:28:04;18.80;99.90
16974;DHT22;8603;46.944;7.412;2022-08-21T06:30:30;18.60;99.90
16974;DHT22;8603;46.944;7.412;2022-08-21T06:32:56;18.60;99.90
16974;DHT22;8603;46.944;7.412;2022-08-21T06:35:21;18.50;99.90
16974;DHT22;8603;46.944;7.412;2022-08-21T06:37:47;18.60;99.90
16974;DHT22;8603;46.944;7.412;2022-08-21T06:40:12;18.70;99.90
16974;DHT22;8603;46.944;7.412;2022-08-21T06:42:38;18.90;99.90
16974;DHT22;8603;46.944;7.412;2022-08-21T06:45:05;19.00;99.90
16974;DHT22;8603;46.944;7.412;2022-08-21T06:47:30;19.20;99.90
16974;DHT22;8603;46.944;7.412;2022-08-21T06:49:56;19.40;99.90
16974;DHT22;8603;46.944;7.412;2022-08-21T06:52:21;19.70;99.90
16974;DHT22;8603;46.944;7.412;2022-08-21T06:54:47;20.30;99.90
16974;DHT22;8603;46.944;7.412;2022-08-21T06:57:13;20.70;99.90
16974;DHT22;8603;46.944;7.412;2022-08-21T06:59:41;21.40;99.90
16974;DHT22;8603;46.944;7.412;2022-08-21T07:02:07;22.60;99.90
16974;DHT22;8603;46.944;7.412;2022-08-21T07:04:33;24.10;99.90
16974;DHT22;8603;46.944;7.412;2022-08-21T07:07:01;25.50;99.90
16974;DHT22;8603;46.944;7.412;2022-08-21T07:09:40;26.70;99.90
16974;DHT22;8603;46.944;7.412;2022-08-21T07:12:14;27.70;99.90
16974;DHT22;8603;46.944;7.412;2022-08-21T07:14:46;28.70;99.90
16974;DHT22;8603;46.944;7.412;2022-08-21T07:17:34;29.70;99.90
16974;DHT22;8603;46.944;7.412;2022-08-21T07:20:04;30.50;99.90
16974;DHT22;8603;46.944;7.412;2022-08-21T07:22:41;31.10;99.90
16974;DHT22;8603;46.944;7.412;2022-08-21T07:25:08;31.60;99.90
16974;DHT22;8603;46.944;7.412;2022-08-21T07:27:34;32.00;99.90
16974;DHT22;8603;46.944;7.412;2022-08-21T07:29:59;32.00;99.90
16974;DHT22;8603;46.944;7.412;2022-08-21T07:32:28;31.90;99.90
16974;DHT22;8603;46.944;7.412;2022-08-21T07:35:03;31.90;99.90
16974;DHT22;8603;46.944;7.412;2022-08-21T07:37:29;32.00;99.90
16974;DHT22;8603;46.944;7.412;2022-08-21T07:39:54;32.20;99.90
16974;DHT22;8603;46.944;7.412;2022-08-21T07:42:20;32.20;99.90
16974;DHT22;8603;46.944;7.412;2022-08-21T07:44:46;32.00;99.90
16974;DHT22;8603;46.944;7.412;2022-08-21T07:47:20;31.40;99.90
16974;DHT22;8603;46.944;7.412;2022-08-21T07:49:48;31.40;99.90
16974;DHT22;8603;46.944;7.412;2022-08-21T07:52:14;31.40;99.90
16974;DHT22;8603;46.944;7.412;2022-08-21T07:54:41;31.60;99.90
16974;DHT22;8603;46.944;7.412;2022-08-21T07:57:09;31.80;99.90
16974;DHT22;8603;46.944;7.412;2022-08-21T08:02:55;31.70;99.90
16974;DHT22;8603;46.944;7.412;2022-08-21T08:05:32;31.00;99.90
16974;DHT22;8603;46.944;7.412;2022-08-21T08:08:20;30.20;99.90
16974;DHT22;8603;46.944;7.412;2022-08-21T08:11:06;29.50;99.90
16974;DHT22;8603;46.944;7.412;2022-08-21T08:13:38;29.10;99.90
16974;DHT22;8603;46.944;7.412;2022-08-21T08:16:23;28.80;99.90
16974;DHT22;8603;46.944;7.412;2022-08-21T08:18:53;28.70;99.90
16974;DHT22;8603;46.944;7.412;2022-08-21T08:21:28;28.40;99.90
16974;DHT22;8603;46.944;7.412;2022-08-21T08:23:54;28.20;99.90
16974;DHT22;8603;46.944;7.412;2022-08-21T08:26:27;28.10;99.90
16974;DHT22;8603;46.944;7.412;2022-08-21T08:28:57;28.30;99.90
16974;DHT22;8603;46.944;7.412;2022-08-21T08:31:26;28.60;99.90
16974;DHT22;8603;46.944;7.412;2022-08-21T08:33:52;28.30;99.90
16974;DHT22;8603;46.944;7.412;2022-08-21T08:36:18;28.10;99.90
16974;DHT22;8603;46.944;7.412;2022-08-21T08:38:54;27.70;99.90
16974;DHT22;8603;46.944;7.412;2022-08-21T08:41:29;27.50;99.90
16974;DHT22;8603;46.944;7.412;2022-08-21T08:46:52;27.40;99.90
16974;DHT22;8603;46.944;7.412;2022-08-21T08:49:31;27.30;99.90
16974;DHT22;8603;46.944;7.412;2022-08-21T08:54:52;27.60;99.90
16974;DHT22;8603;46.944;7.412;2022-08-21T08:57:59;27.50;99.90
16974;DHT22;8603;46.944;7.412;2022-08-21T09:00:51;27.10;99.90
16974;DHT22;8603;46.944;7.412;2022-08-21T09:03:29;27.20;99.90
16974;DHT22;8603;46.944;7.412;2022-08-21T09:13:43;28.00;99.90
16974;DHT22;8603;46.944;7.412;2022-08-21T09:16:56;28.20;99.90
16974;DHT22;8603;46.944;7.412;2022-08-21T09:20:32;28.20;99.90
16974;DHT22;8603;46.944;7.412;2022-08-21T09:26:18;28.30;99.90
16974;DHT22;8603;46.944;7.412;2022-08-21T09:29:17;28.40;99.90
16974;DHT22;8603;46.944;7.412;2022-08-21T09:32:36;28.20;99.90
16974;DHT22;8603;46.944;7.412;2022-08-21T09:35:24;28.30;99.90
16974;DHT22;8603;46.944;7.412;2022-08-21T09:37:55;27.90;99.90
16974;DHT22;8603;46.944;7.412;2022-08-21T09:44:13;27.20;99.90
16974;DHT22;8603;46.944;7.412;2022-08-21T09:47:12;27.10;99.90
16974;DHT22;8603;46.944;7.412;2022-08-21T09:49:49;26.80;99.90
16974;DHT22;8603;46.944;7.412;2022-08-21T09:52:42;26.60;99.90
16974;DHT22;8603;46.944;7.412;2022-08-21T09:55:40;26.40;99.90
16974;DHT22;8603;46.944;7.412;2022-08-21T09:58:46;26.10;99.90
16974;DHT22;8603;46.944;7.412;2022-08-21T10:01:25;25.70;99.90
16974;DHT22;8603;46.944;7.412;2022-08-21T10:07:09;25.70;99.90
16974;DHT22;8603;46.944;7.412;2022-08-21T10:09:57;25.60;99.90
16974;DHT22;8603;46.944;7.412;2022-08-21T10:13:08;25.40;99.90
16974;DHT22;8603;46.944;7.412;2022-08-21T10:25:49;25.40;99.90
16974;DHT22;8603;46.944;7.412;2022-08-21T10:28:18;25.20;99.90
16974;DHT22;8603;46.944;7.412;2022-08-21T10:30:58;25.00;99.90
16974;DHT22;8603;46.944;7.412;2022-08-21T10:39:04;25.20;99.90
16974;DHT22;8603;46.944;7.412;2022-08-21T10:42:07;25.20;99.90
16974;DHT22;8603;46.944;7.412;2022-08-21T10:47:55;25.10;99.90
16974;DHT22;8603;46.944;7.412;2022-08-21T10:50:45;25.20;99.90
16974;DHT22;8603;46.944;7.412;2022-08-21T10:56:01;25.10;99.90
16974;DHT22;8603;46.944;7.412;2022-08-21T10:58:44;25.10;99.90
16974;DHT22;8603;46.944;7.412;2022-08-21T11:01:19;25.00;99.90
16974;DHT22;8603;46.944;7.412;2022-08-21T11:03:54;24.80;99.90
16974;DHT22;8603;46.944;7.412;2022-08-21T11:06:30;24.90;99.90
16974;DHT22;8603;46.944;7.412;2022-08-21T11:09:20;25.00;99.90
16974;DHT22;8603;46.944;7.412;2022-08-21T11:18:33;25.20;99.90
16974;DHT22;8603;46.944;7.412;2022-08-21T11:23:53;24.90;99.90
16974;DHT22;8603;46.944;7.412;2022-08-21T11:26:57;24.70;99.90
16974;DHT22;8603;46.944;7.412;2022-08-21T11:29:49;24.70;99.90
16974;DHT22;8603;46.944;7.412;2022-08-21T11:33:20;24.90;99.90
16974;DHT22;8603;46.944;7.412;2022-08-21T11:39:43;25.20;99.90
16974;DHT22;8603;46.944;7.412;2022-08-21T11:41:43;25.10;99.90
16974;DHT22;8603;46.944;7.412;2022-08-21T11:44:48;25.10;99.90
16974;DHT22;8603;46.944;7.412;2022-08-21T11:50:23;25.00;99.90
16974;DHT22;8603;46.944;7.412;2022-08-21T12:02:29;25.20;99.90
16974;DHT22;8603;46.944;7.412;2022-08-21T12:05:27;25.20;99.90
16974;DHT22;8603;46.944;7.412;2022-08-21T12:08:25;25.20;99.90
16974;DHT22;8603;46.944;7.412;2022-08-21T12:11:23;25.20;99.90
16974;DHT22;8603;46.944;7.412;2022-08-21T12:17:03;25.10;99.90
16974;DHT22;8603;46.944;7.412;2022-08-21T12:19:37;25.20;99.90
16974;DHT22;8603;46.944;7.412;2022-08-21T12:22:13;25.30;99.90
16974;DHT22;8603;46.944;7.412;2022-08-21T12:24:50;25.40;99.90
16974;DHT22;8603;46.944;7.412;2022-08-21T12:28:08;25.40;99.90
16974;DHT22;8603;46.944;7.412;2022-08-21T12:30:39;25.50;99.90
16974;DHT22;8603;46.944;7.412;2022-08-21T12:33:33;25.60;99.90
16974;DHT22;8603;46.944;7.412;2022-08-21T12:36:09;25.50;99.90
16974;DHT22;8603;46.944;7.412;2022-08-21T12:38:56;25.40;99.90
16974;DHT22;8603;46.944;7.412;2022-08-21T12:41:47;25.40;99.90
16974;DHT22;8603;46.944;7.412;2022-08-21T12:44:17;25.50;99.90
16974;DHT22;8603;46.944;7.412;2022-08-21T12:46:56;25.60;99.90
16974;DHT22;8603;46.944;7.412;2022-08-21T12:49:56;25.50;99.90
16974;DHT22;8603;46.944;7.412;2022-08-21T12:52:51;25.20;99.90
16974;DHT22;8603;46.944;7.412;2022-08-21T12:55:27;25.00;99.90
16974;DHT22;8603;46.944;7.412;2022-08-21T12:57:53;24.90;99.90
16974;DHT22;8603;46.944;7.412;2022-08-21T13:00:23;25.00;99.90
16974;DHT22;8603;46.944;7.412;2022-08-21T13:02:50;25.10;99.90
16974;DHT22;8603;46.944;7.412;2022-08-21T13:05:36;25.10;99.90
16974;DHT22;8603;46.944;7.412;2022-08-21T13:08:11;25.00;99.90
16974;DHT22;8603;46.944;7.412;2022-08-21T13:10:39;24.90;99.90
16974;DHT22;8603;46.944;7.412;2022-08-21T13:13:20;24.90;99.90
16974;DHT22;8603;46.944;7.412;2022-08-21T13:15:46;24.90;99.90
16974;DHT22;8603;46.944;7.412;2022-08-21T13:18:21;24.90;99.90
16974;DHT22;8603;46.944;7.412;2022-08-21T13:20:48;25.00;99.90
16974;DHT22;8603;46.944;7.412;2022-08-21T13:23:25;25.10;99.90
16974;DHT22;8603;46.944;7.412;2022-08-21T13:25:51;25.30;99.90
16974;DHT22;8603;46.944;7.412;2022-08-21T13:28:16;25.40;99.90
16974;DHT22;8603;46.944;7.412;2022-08-21T13:30:45;25.50;99.90
16974;DHT22;8603;46.944;7.412;2022-08-21T13:33:14;25.70;99.90
16974;DHT22;8603;46.944;7.412;2022-08-21T13:38:12;26.10;99.90
16974;DHT22;8603;46.944;7.412;2022-08-21T13:40:46;26.20;99.90
16974;DHT22;8603;46.944;7.412;2022-08-21T13:43:16;26.10;99.90
16974;DHT22;8603;46.944;7.412;2022-08-21T13:45:47;25.90;99.90
16974;DHT22;8603;46.944;7.412;2022-08-21T13:48:13;25.60;99.90
16974;DHT22;8603;46.944;7.412;2022-08-21T13:50:41;25.40;99.90
16974;DHT22;8603;46.944;7.412;2022-08-21T13:53:23;25.10;99.90
16974;DHT22;8603;46.944;7.412;2022-08-21T13:55:49;24.90;99.90
16974;DHT22;8603;46.944;7.412;2022-08-21T13:58:28;24.90;99.90
16974;DHT22;8603;46.944;7.412;2022-08-21T14:00:55;25.00;99.90
16974;DHT22;8603;46.944;7.412;2022-08-21T14:03:37;25.20;99.90
16974;DHT22;8603;46.944;7.412;2022-08-21T14:06:16;25.40;99.90
16974;DHT22;8603;46.944;7.412;2022-08-21T14:08:51;25.60;99.90
16974;DHT22;8603;46.944;7.412;2022-08-21T14:11:18;25.70;99.90
16974;DHT22;8603;46.944;7.412;2022-08-21T14:14:06;25.90;99.90
16974;DHT22;8603;46.944;7.412;2022-08-21T14:16:56;26.10;99.90
16974;DHT22;8603;46.944;7.412;2022-08-21T14:19:43;26.20;99.90
16974;DHT22;8603;46.944;7.412;2022-08-21T14:30:36;26.00;99.90
16974;DHT22;8603;46.944;7.412;2022-08-21T14:33:03;26.20;99.90
16974;DHT22;8603;46.944;7.412;2022-08-21T14:35:30;26.30;98.70
16974;DHT22;8603;46.944;7.412;2022-08-21T14:37:56;26.30;99.00
16974;DHT22;8603;46.944;7.412;2022-08-21T14:40:23;26.40;98.30
16974;DHT22;8603;46.944;7.412;2022-08-21T14:42:50;26.30;96.70
16974;DHT22;8603;46.944;7.412;2022-08-21T14:45:25;26.30;99.20
16974;DHT22;8603;46.944;7.412;2022-08-21T14:47:53;26.40;99.50
16974;DHT22;8603;46.944;7.412;2022-08-21T14:50:19;26.50;99.30
16974;DHT22;8603;46.944;7.412;2022-08-21T14:52:45;26.50;98.80
16974;DHT22;8603;46.944;7.412;2022-08-21T14:55:11;26.50;99.00
16974;DHT22;8603;46.944;7.412;2022-08-21T14:57:42;26.60;99.10
16974;DHT22;8603;46.944;7.412;2022-08-21T15:00:12;26.60;98.60
16974;DHT22;8603;46.944;7.412;2022-08-21T15:02:38;26.60;97.40
16974;DHT22;8603;46.944;7.412;2022-08-21T15:05:05;26.60;96.10
16974;DHT22;8603;46.944;7.412;2022-08-21T15:07:31;26.50;96.20
16974;DHT22;8603;46.944;7.412;2022-08-21T15:09:56;26.40;96.50
16974;DHT22;8603;46.944;7.412;2022-08-21T15:12:23;26.40;96.30
16974;DHT22;8603;46.944;7.412;2022-08-21T15:14:49;26.40;96.50
16974;DHT22;8603;46.944;7.412;2022-08-21T15:17:15;26.40;97.10
16974;DHT22;8603;46.944;7.412;2022-08-21T15:19:41;26.50;97.50
16974;DHT22;8603;46.944;7.412;2022-08-21T15:22:07;26.50;97.10
16974;DHT22;8603;46.944;7.412;2022-08-21T15:24:33;26.50;97.70
16974;DHT22;8603;46.944;7.412;2022-08-21T15:27:01;26.50;96.30
16974;DHT22;8603;46.944;7.412;2022-08-21T15:29:29;26.40;96.70
16974;DHT22;8603;46.944;7.412;2022-08-21T15:31:57;26.30;98.10
16974;DHT22;8603;46.944;7.412;2022-08-21T15:34:25;26.30;98.80
16974;DHT22;8603;46.944;7.412;2022-08-21T15:36:50;26.10;98.60
16974;DHT22;8603;46.944;7.412;2022-08-21T15:39:16;26.00;98.80
16974;DHT22;8603;46.944;7.412;2022-08-21T15:41:43;25.90;97.80
16974;DHT22;8603;46.944;7.412;2022-08-21T15:44:11;25.80;98.40
16974;DHT22;8603;46.944;7.412;2022-08-21T15:46:38;25.70;98.60
16974;DHT22;8603;46.944;7.412;2022-08-21T15:49:05;25.60;99.70
16974;DHT22;8603;46.944;7.412;2022-08-21T15:51:32;25.60;99.90
16974;DHT22;8603;46.944;7.412;2022-08-21T15:53:58;25.60;99.90
16974;DHT22;8603;46.944;7.412;2022-08-21T15:56:26;25.70;99.90
16974;DHT22;8603;46.944;7.412;2022-08-21T15:58:57;25.70;99.90
16974;DHT22;8603;46.944;7.412;2022-08-21T16:01:24;25.70;99.90
16974;DHT22;8603;46.944;7.412;2022-08-21T16:03:52;25.80;99.90
16974;DHT22;8603;46.944;7.412;2022-08-21T16:06:18;25.90;99.90
16974;DHT22;8603;46.944;7.412;2022-08-21T16:08:44;25.90;99.90
16974;DHT22;8603;46.944;7.412;2022-08-21T16:11:11;25.90;99.90
16974;DHT22;8603;46.944;7.412;2022-08-21T16:13:40;25.90;99.90
16974;DHT22;8603;46.944;7.412;2022-08-21T16:16:11;25.70;99.90
16974;DHT22;8603;46.944;7.412;2022-08-21T16:18:38;25.70;99.90
16974;DHT22;8603;46.944;7.412;2022-08-21T16:21:05;25.70;99.90
16974;DHT22;8603;46.944;7.412;2022-08-21T16:23:30;25.60;99.90
16974;DHT22;8603;46.944;7.412;2022-08-21T16:25:58;25.50;99.90
16974;DHT22;8603;46.944;7.412;2022-08-21T16:28:24;25.40;99.90
16974;DHT22;8603;46.944;7.412;2022-08-21T16:30:50;25.30;99.90
16974;DHT22;8603;46.944;7.412;2022-08-21T16:35:55;25.00;99.90
16974;DHT22;8603;46.944;7.412;2022-08-21T16:38:21;24.90;99.90
16974;DHT22;8603;46.944;7.412;2022-08-21T16:40:48;24.80;99.90
16974;DHT22;8603;46.944;7.412;2022-08-21T16:43:15;24.70;99.90
16974;DHT22;8603;46.944;7.412;2022-08-21T16:45:42;24.60;99.90
16974;DHT22;8603;46.944;7.412;2022-08-21T16:48:08;24.50;99.90
16974;DHT22;8603;46.944;7.412;2022-08-21T16:50:35;24.40;99.90
16974;DHT22;8603;46.944;7.412;2022-08-21T16:53:01;24.30;99.90
16974;DHT22;8603;46.944;7.412;2022-08-21T16:55:27;24.20;99.90
16974;DHT22;8603;46.944;7.412;2022-08-21T16:57:54;24.20;99.90
16974;DHT22;8603;46.944;7.412;2022-08-21T17:00:20;24.10;99.90
16974;DHT22;8603;46.944;7.412;2022-08-21T17:02:49;24.10;99.90
16974;DHT22;8603;46.944;7.412;2022-08-21T17:05:15;24.00;99.90
16974;DHT22;8603;46.944;7.412;2022-08-21T17:07:42;24.00;99.90
16974;DHT22;8603;46.944;7.412;2022-08-21T17:10:09;23.90;99.90
16974;DHT22;8603;46.944;7.412;2022-08-21T17:12:35;23.90;99.90
16974;DHT22;8603;46.944;7.412;2022-08-21T17:15:05;23.90;99.90
16974;DHT22;8603;46.944;7.412;2022-08-21T17:17:33;23.90;99.90
16974;DHT22;8603;46.944;7.412;2022-08-21T17:19:59;23.80;99.90
16974;DHT22;8603;46.944;7.412;2022-08-21T17:22:25;23.80;99.90
16974;DHT22;8603;46.944;7.412;2022-08-21T17:24:50;23.80;99.90
16974;DHT22;8603;46.944;7.412;2022-08-21T17:27:17;23.80;99.90
16974;DHT22;8603;46.944;7.412;2022-08-21T17:29:44;23.80;99.90
16974;DHT22;8603;46.944;7.412;2022-08-21T17:32:11;23.80;99.90
16974;DHT22;8603;46.944;7.412;2022-08-21T17:34:38;23.70;99.90
16974;DHT22;8603;46.944;7.412;2022-08-21T17:37:05;23.70;99.90
16974;DHT22;8603;46.944;7.412;2022-08-21T17:39:31;23.60;99.90
16974;DHT22;8603;46.944;7.412;2022-08-21T17:42:03;23.60;99.90